NCAR-RAP Real-Time Weather Data

Output produced by METARs form (23 February 2020  02:40 UTC)
found at http://weather.rap.ucar.edu/surface/
 
KSAT 230151Z 17009KT 10SM BKN041 BKN250 16/06 A3020 RMK AO2 SLP216 T01560061
KSAT 230051Z 16008KT 10SM FEW040 BKN250 15/06 A3020 RMK AO2 SLP217 T01500056
KSAT 222351Z 15010KT 10SM FEW040 BKN250 16/05 A3019 RMK AO2 SLP215 T01610050 10178 20139 56020
KSAT 222251Z 17007KT 10SM BKN250 17/04 A3021 RMK AO2 SLP221 T01720044
KSAT 222151Z 17012G20KT 10SM BKN250 17/03 A3022 RMK AO2 SLP225 T01720033
KSAT 222051Z 15009KT 10SM BKN250 17/03 A3025 RMK AO2 SLP235 T01670033 56041
KSAT 221951Z 16007G14KT 10SM BKN250 16/02 A3029 RMK AO2 SLP247 T01560022
KSAT 221851Z 16009KT 10SM BKN250 15/03 A3033 RMK AO2 SLP261 T01500028
KSAT 221751Z 18008KT 10SM BKN250 14/03 A3038 RMK AO2 SLP277 T01390033 10139 20044 58008
KSAT 221651Z 17010G15KT 10SM BKN250 12/02 A3040 RMK AO2 SLP287 T01220022
KSAT 221551Z 15006KT 10SM BKN250 11/02 A3042 RMK AO2 SLP292 T01060017
KSAT 221451Z COR 15009KT 10SM BKN250 09/02 A3040 RMK AO2 SLP286 T00890017 50001
KSAT 221351Z 00000KT 10SM CLR 06/02 A3040 RMK AO2 SLP287 T00560022
KSAT 221251Z 00000KT 10SM SCT250 05/01 A3040 RMK AO2 SLP287 T00500011
KSAT 221151Z 00000KT 10SM BKN230 06/02 A3040 RMK AO2 SLP285 T00560017 10072 20056 56014
KSAT 221051Z 00000KT 10SM BKN230 06/01 A3041 RMK AO2 SLP288 T00610011
KSAT 220951Z 00000KT 10SM SCT250 06/01 A3041 RMK AO2 SLP289 T00560011
KSAT 220851Z 00000KT 10SM CLR 07/01 A3044 RMK AO2 SLP298 T00670011 56016
KSAT 220751Z 00000KT 10SM CLR 07/01 A3045 RMK AO2 SLP302 T00670011
KSAT 220651Z 00000KT 10SM CLR 07/01 A3047 RMK AO2 SLP311 T00720006
KSAT 220551Z 10004KT 10SM CLR 07/01 A3049 RMK AO2 SLP315 T00720006 10122 20067 401390028 58007
KSAT 220451Z 09004KT 10SM FEW070 BKN250 07/01 A3049 RMK AO2 SLP319 T00720006
KSAT 220351Z 11004KT 10SM BKN070 BKN250 08/01 A3051 RMK AO2 SLP323 T00780011
KSAT 220251Z 10004KT 10SM BKN070 BKN250 09/01 A3051 RMK AO2 SLP324 T00940011 53007
KSAT 220151Z 10006KT 10SM SCT070 SCT250 09/01 A3049 RMK AO2 SLP319 T00890006
KSAT 220051Z 10008KT 10SM FEW120 SCT250 10/01 A3049 RMK AO2 SLP319 T01000006
KSAT 212351Z 13004KT 10SM FEW250 12/01 A3048 RMK AO2 SLP316 T01220011 10139 20100 55015
KSAT 212251Z 00000KT 10SM FEW250 13/00 A3048 RMK AO2 SLP316 T01280000
KSAT 212151Z 35007KT 10SM FEW250 13/01 A3050 RMK AO2 SLP319 T01330006
KSAT 212051Z VRB06KT 10SM FEW250 13/01 A3053 RMK AO2 SLP330 T01330011 56047
KSAT 211951Z VRB05KT 10SM FEW060 FEW250 12/01 A3056 RMK AO2 SLP342 T01220006
KSAT 211851Z VRB06KT 10SM FEW055 FEW250 12/01 A3061 RMK AO2 SLP357 T01170011 $
KSAT 211751Z 06005KT 10SM FEW040 FEW250 10/00 A3067 RMK AO2 SLP379 T01000000 10100 20028 58006 $
KSAT 211651Z 07006KT 10SM FEW250 08/M01 A3069 RMK AO2 SLP387 T00831006 $
KSAT 211551Z 36008KT 10SM FEW250 07/M01 A3071 RMK AO2 SLP392 T00671006 $
KSAT 211451Z 36012KT 10SM FEW250 05/M02 A3069 RMK AO2 SLP386 T00501017 53020 $
KSAT 211351Z 36009KT 10SM FEW250 03/M02 A3066 RMK AO2 SLP377 T00331017 $
KSAT 211251Z 01008KT 10SM FEW250 03/M02 A3064 RMK AO2 SLP371 T00281017 $
KSAT 211151Z 01010KT 10SM CLR 03/M02 A3063 RMK AO2 SLP366 70002 T00331017 10072 20033 53003 $
KSAT 211051Z 36008KT 10SM CLR 04/M01 A3063 RMK AO2 SLP366 T00391011 $
KSAT 210951Z 36010KT 10SM CLR 04/M01 A3062 RMK AO2 SLP362 T00441006 $
KSAT 210851Z 36009KT 10SM CLR 05/00 A3062 RMK AO2 SLP362 T00500000 50004 $
KSAT 210751Z 01010G21KT 10SM CLR 06/01 A3062 RMK AO2 SLP363 T00560006 $
KSAT 210651Z 01011KT 10SM CLR 07/01 A3062 RMK AO2 SLP362 T00670011 $
KSAT 210551Z 01012G18KT 10SM FEW100 07/02 A3061 RMK AO2 SLP358 T00720017 10100 20072 401000072 51015 $
KSAT 210451Z 01011G19KT 10SM FEW100 08/01 A3060 RMK AO2 SLP357 T00780011 $
KSAT 210351Z 35006KT 10SM FEW120 08/02 A3059 RMK AO2 SLP351 T00780022 $
KSAT 210251Z 01007KT 10SM FEW070 SCT120 09/03 A3056 RMK AO2 SLP341 T00890028 53034 $